• Join FlightAware (Why Join?)
  • Login
  • US Flag 
08:36AM EST


 

Airport Tracker/Info


-or-


 

Live Flight TrackerFlight Track Log ✈ FLG3735 ✈ 10-Oct-2013 ✈ KDTW - KALB

Flight Track Log - Related Links

Times and Time Zones

All times are in EDT time to prevent confusion due to time zone crossing. See the FLG3735 flight status page for this flight to view local times or setup timezone preferences in your user account.

Time Position Orientation Groundspeed Altitude Reporting Facility
EDT Latitude Longitude Course Direction KTS MPH feet Rate Location/Type
10:01PM 42.2031 -83.3525 186° South 156 180 1,200  Level Cleveland Center
10:02PM 42.1522 -83.3594 186° South 215 247 2,800 1,860 Climbing Cleveland Center
10:03PM 42.1333 -83.3578 176° South 191 220 3,800 1,740 Climbing Cleveland Center
10:04PM 42.0856 -83.3531 176° South 262 302 4,800 1,560 Climbing Cleveland Center
10:04PM 42.0717 -83.3322 132° Southeast 246 283 5,400 2,280 Climbing Cleveland Center
10:04PM 42.0567 -83.2672 107° East 300 345 6,900 1,920 Climbing Cleveland Center
10:05PM 42.0631 -83.2300 77° East 290 334 7,400 2,160 Climbing Cleveland Center
10:06PM 42.0947 -83.1483 62° Northeast 285 328 10,000 1,800 Climbing Cleveland Center
10:07PM 42.1431 -83.0250 62° Northeast 314 361 11,200 1,020 Climbing Cleveland Center
10:08PM 42.1872 -82.9119 62° Northeast 341 392 12,200 960 Climbing Cleveland Center
10:09PM 42.2342 -82.7922 62° Northeast 361 415 13,200 960 Climbing Cleveland Center
10:10PM 42.2822 -82.6711 62° Northeast 368 423 14,200 960 Climbing Cleveland Center
10:11PM 42.3306 -82.5456 62° Northeast 376 433 15,200 960 Climbing Cleveland Center
10:12PM 42.3664 -82.4150 70° East 382 440 16,200 1,020 Climbing Cleveland Center
10:13PM 42.3589 -82.2433 93° East 381 438 17,400 960 Climbing Cleveland Center
10:14PM 42.3531 -82.0978 93° East 383 441 18,200 720 Climbing Cleveland Center
10:15PM 42.3464 -81.9511 93° East 386 444 19,000 720 Climbing Cleveland Center
10:16PM 42.3397 -81.8003 93° East 395 455 19,700 660 Climbing Cleveland Center
10:17PM 42.3328 -81.6475 93° East 401 461 20,400 660 Climbing Cleveland Center
10:18PM 42.3253 -81.4928 94° East 406 467 21,100 720 Climbing Cleveland Center
10:19PM 42.3172 -81.3367 94° East 410 472 21,900 720 Climbing Cleveland Center
10:20PM 42.3094 -81.1797 94° East 413 475 22,600 600 Climbing Cleveland Center
10:21PM 42.3014 -81.0233 94° East 413 475 23,200 480 Climbing Cleveland Center
10:22PM 42.2933 -80.8653 94° East 417 480 23,700 480 Climbing Cleveland Center
10:23PM 42.2853 -80.7072 94° East 418 481 24,200 480 Climbing Cleveland Center
10:24PM 42.2756 -80.5239 94° East 417 480 24,800 480 Climbing Cleveland Center
10:25PM 42.2675 -80.3647 94° East 420 483 25,300 480 Climbing Cleveland Center
10:26PM 42.2578 -80.2047 95° East 424 488 25,800 480 Climbing Cleveland Center
10:27PM 42.2478 -80.0461 95° East 422 486 26,300 480 Climbing Cleveland Center
10:28PM 42.2381 -79.8828 95° East 418 481 26,800 480 Climbing Cleveland Center
10:30PM 42.2281 -79.7264 95° East 419 482 27,300 480 Climbing Cleveland Center
10:31PM 42.2181 -79.5694 95° East 422 486 27,800 480 Climbing Cleveland Center
10:32PM 42.2081 -79.4147 95° East 417 480 28,400 480 Climbing Cleveland Center
10:33PM 42.1972 -79.2578 95° East 420 483 28,900 240 Climbing Cleveland Center
10:34PM 42.1911 -79.1011 93° East 422 486 29,000  Climbing Cleveland Center
10:35PM 42.2156 -78.9078 80° East 436 502 29,000  Level Cleveland Center
10:36PM 42.2350 -78.7594 80° East 438 504 29,000  Level Cleveland Center
10:37PM 42.2553 -78.5936 81° East 445 512 29,000  Level Cleveland Center
10:38PM 42.2758 -78.4292 80° East 447 514 29,000 -240 Level Cleveland Center
10:39PM 42.3000 -78.2267 81° East 454 522 28,600 -1,020 Descending Cleveland Center
10:40PM 42.3200 -78.0589 81° East 455 524 27,000 -840 Descending Cleveland Center
10:41PM 42.3408 -77.8872 81° East 465 535 27,000  Level Cleveland Center
10:42PM 42.3606 -77.7164 81° East 467 537 27,000  Level Cleveland Center
10:43PM 42.3814 -77.5472 80° East 466 536 27,000  Level Cleveland Center
10:44PM 42.4011 -77.3761 81° East 467 537 27,000  Level Cleveland Center
10:45PM 42.4236 -77.1694 82° East 469 540 27,000  Level Cleveland Center
10:46PM 42.4428 -76.9981 81° East 466 536 27,000  Level Cleveland Center
10:47PM 42.4617 -76.8272 81° East 463 533 27,000  Level Cleveland Center
10:48PM 42.4789 -76.6528 82° East 467 537 27,000  Level Cleveland Center
10:49PM 42.4986 -76.4811 81° East 465 535 27,000  Level Cleveland Center
10:50PM 42.5175 -76.2839 83° East 469 540 27,000 -540 Level Cleveland Center
10:51PM 42.5364 -76.1103 82° East 468 539 26,000 -1,320 Descending Cleveland Center
10:52PM 42.5536 -75.9339 82° East 472 543 24,400 -1,620 Descending Cleveland Center
10:53PM 42.5706 -75.7575 83° East 475 547 22,800 -1,620 Descending Cleveland Center
10:54PM 42.5881 -75.5831 82° East 472 543 21,200 -1,620 Descending Cleveland Center
10:55PM 42.6047 -75.4156 82° East 459 528 19,600 -1,560 Descending Cleveland Center
10:56PM 42.6200 -75.2419 83° East 459 528 18,000 -1,440 Descending Boston Center
10:57PM 42.6364 -75.0875 82° East 437 503 16,700 -1,500 Descending Boston Center
10:58PM 42.6481 -74.9439 84° East 408 470 15,100 -1,740 Descending Boston Center
10:59PM 42.6617 -74.7836 83° East 386 444 13,200 -1,980 Descending Boston Center
10:59PM 42.6619 -74.7694 88° East 373 429 13,000 -2,040 Descending Boston Center
11:00PM 42.6672 -74.7272 80° East 373 429 12,500 -1,380 Descending Boston Center
11:00PM 42.6728 -74.6456 85° East 380 437 11,700 -1,440 Descending Boston Center
11:01PM 42.6761 -74.5919 85° East 361 415 11,000 -780 Descending Boston Center
11:01PM 42.6586 -74.5181 108° East 345 397 11,000 -420 Level Boston Center
11:02PM 42.6469 -74.4753 110° East 314 361 10,600 -1,020 Descending Boston Center
11:02PM 42.6333 -74.4100 106° East 317 365 10,000 -1,380 Descending Boston Center
11:03PM 42.6214 -74.3756 115° Southeast 262 302 9,200 -1,920 Descending Boston Center
11:03PM 42.6058 -74.3189 110° East 271 312 8,100 -1,920 Descending Boston Center
11:04PM 42.5958 -74.2847 112° Southeast 260 299 7,400 -1,680 Descending Boston Center
11:04PM 42.5803 -74.2278 110° East 265 305 6,500 -1,800 Descending Boston Center
11:05PM 42.5725 -74.1908 106° East 260 299 5,600 -1,920 Descending Boston Center
11:05PM 42.5586 -74.1342 108° East 260 299 4,600 -1,620 Descending Boston Center
11:06PM 42.5447 -74.0942 115° Southeast 253 291 4,000 -600 Descending Boston Center
11:06PM 42.5411 -74.0547 97° East 249 287 4,000  Level Boston Center
11:07PM 42.5419 -74.0011 89° East 247 284 4,000 -120 Level Boston Center
11:07PM 42.5425 -73.9533 89° East 244 281 3,900 -600 Descending Boston Center
11:08PM 42.5431 -73.9083 89° East 251 289 3,400 -900 Descending Boston Center
11:08PM 42.5436 -73.8717 89° East 239 275 3,000 -420 Descending Boston Center
11:09PM 42.5608 -73.8297 61° Northeast 221 254 3,000  Level Boston Center
11:09PM 42.5858 -73.8106 29° Northeast 195 224 3,000 -240 Level Boston Center
11:10PM 42.6111 -73.8028 13° North 203 234 2,800 -600 Descending Boston Center
11:10PM 42.6339 -73.8003 North 186 214 2,400 -1,020 Descending Boston Center
11:11PM 42.6611 -73.8036 355° North 144 166 1,800 -900 Descending Boston Center
11:11PM 42.6756 -73.8042 358° North 163 188 1,500 -780 Descending Boston Center
11:12PM 42.6944 -73.8072 353° North 137 158 1,100 -840 Descending Boston Center
11:13PM 42.7361 -73.8111 356° North 138 159 300 -780 Descending Boston Center